Time;durP1;ratioP1;P1;durP2;ratioP2;P2;SDS_P1;SDS_P2;PMS_P1;PMS_P2;Temp;Humidity;BMP_temperature;BMP_pressure;BME280_temperature;BME280_humidity;BME280_pressure;Samples;Min_cycle;Max_cycle;Signal;HPM_P1;HPM_P2
2023/08/24 00:00:58;;;;;;;3.62;3.40;;;20.90;76.80;;;;;;950980;146;27385;-77
2023/08/24 00:03:25;;;;;;;4.35;4.03;;;21.00;77.10;;;;;;949691;146;27888;-76
2023/08/24 00:05:51;;;;;;;4.50;4.10;;;20.90;77.20;;;;;;949023;146;27866;-75
2023/08/24 00:08:18;;;;;;;5.10;4.70;;;20.90;77.50;;;;;;949819;146;28280;-77
2023/08/24 00:10:47;;;;;;;4.30;3.87;;;20.90;77.80;;;;;;949687;146;27248;-76
2023/08/24 00:13:11;;;;;;;4.45;4.05;;;20.90;78.00;;;;;;954291;145;27869;-76
2023/08/24 00:15:39;;;;;;;4.72;4.33;;;20.90;78.40;;;;;;970007;145;27313;-76
2023/08/24 00:18:04;;;;;;;4.42;4.12;;;20.80;78.90;;;;;;970192;145;27354;-77
2023/08/24 00:20:32;;;;;;;4.25;3.95;;;20.80;79.30;;;;;;970195;145;27318;-76
2023/08/24 00:22:58;;;;;;;4.65;4.25;;;20.80;79.80;;;;;;969622;145;27391;-77
2023/08/24 00:25:25;;;;;;;4.75;4.35;;;20.80;80.10;;;;;;970039;145;27417;-76
2023/08/24 00:27:51;;;;;;;4.28;3.98;;;20.70;80.60;;;;;;970230;145;27403;-77
2023/08/24 00:30:17;;;;;;;4.55;4.22;;;20.70;81.00;;;;;;970299;145;27444;-77
2023/08/24 00:32:44;;;;;;;5.47;4.95;;;20.70;81.70;;;;;;969716;145;27321;-77
2023/08/24 00:35:11;;;;;;;4.67;4.37;;;20.70;82.00;;;;;;970889;145;27322;-76
2023/08/24 00:37:37;;;;;;;5.47;4.83;;;20.70;82.50;;;;;;970260;145;27302;-74
2023/08/24 00:40:13;;;;;;;6.78;4.70;;;20.70;82.90;;;;;;971106;145;27965;-76
2023/08/24 00:42:31;;;;;;;4.75;4.40;;;20.70;83.70;;;;;;965585;145;27313;-76
2023/08/24 00:44:57;;;;;;;5.42;4.97;;;20.60;84.20;;;;;;969683;145;27848;-77
2023/08/24 00:47:23;;;;;;;4.75;4.35;;;20.60;84.70;;;;;;970907;145;27305;-76
2023/08/24 00:49:50;;;;;;;6.62;4.95;;;20.60;85.40;;;;;;970901;145;27346;-77
2023/08/24 00:52:17;;;;;;;5.87;4.78;;;20.60;86.10;;;;;;970182;145;27413;-76
2023/08/24 00:54:43;;;;;;;6.03;4.78;;;20.50;86.70;;;;;;970010;145;27254;-76
2023/08/24 00:57:10;;;;;;;6.20;5.72;;;20.50;87.60;;;;;;970617;145;27325;-77
2023/08/24 00:59:36;;;;;;;6.25;5.65;;;20.50;88.30;;;;;;970636;145;27374;-75
2023/08/24 01:02:03;;;;;;;5.53;5.12;;;20.50;89.20;;;;;;970827;145;27349;-77
2023/08/24 01:04:30;;;;;;;5.47;4.97;;;20.40;89.70;;;;;;970065;145;27394;-76
2023/08/24 01:06:56;;;;;;;5.35;4.78;;;20.40;90.20;;;;;;948461;148;27340;-77
2023/08/24 01:09:23;;;;;;;5.10;4.47;;;20.40;90.40;;;;;;945708;150;27353;-76
2023/08/24 01:11:52;;;;;;;5.15;4.75;;;20.40;90.50;;;;;;946703;149;27442;-75
2023/08/24 01:14:24;;;;;;;5.55;5.05;;;20.30;90.80;;;;;;944867;148;28377;-76
2023/08/24 01:16:51;;;;;;;5.17;4.78;;;20.30;91.20;;;;;;963597;145;27267;-77
2023/08/24 01:19:35;;;;;;;4.75;4.45;;;20.30;91.60;;;;;;966599;145;27251;-76
2023/08/24 01:22:02;;;;;;;5.40;4.90;;;20.20;91.90;;;;;;966572;145;27423;-78
2023/08/24 01:24:31;;;;;;;5.42;4.85;;;20.20;92.10;;;;;;965931;145;27295;-79
2023/08/24 01:26:58;;;;;;;5.33;4.85;;;20.20;92.50;;;;;;966584;145;27287;-79
2023/08/24 01:29:25;;;;;;;4.75;4.33;;;20.20;92.80;;;;;;967191;145;27307;-78
2023/08/24 01:31:51;;;;;;;5.03;4.60;;;20.20;93.30;;;;;;967362;145;27362;-77
2023/08/24 01:34:18;;;;;;;4.97;4.58;;;20.10;93.70;;;;;;966723;145;27455;-76
2023/08/24 01:36:45;;;;;;;5.85;4.40;;;20.10;94.00;;;;;;943714;149;27325;-76
2023/08/24 01:39:11;;;;;;;5.03;4.50;;;20.10;94.40;;;;;;966751;145;27435;-77
2023/08/24 01:41:42;;;;;;;4.97;4.58;;;20.10;94.60;;;;;;933239;149;27338;-75
2023/08/24 01:44:04;;;;;;;5.85;4.50;;;20.10;94.80;;;;;;966501;145;27373;-77
2023/08/24 01:46:31;;;;;;;5.20;4.70;;;20.10;95.20;;;;;;967091;145;27294;-77
2023/08/24 01:48:57;;;;;;;4.95;4.55;;;20.00;95.50;;;;;;966812;145;27339;-76
2023/08/24 01:51:24;;;;;;;4.97;4.60;;;20.00;95.80;;;;;;967232;145;27334;-75
2023/08/24 01:53:51;;;;;;;5.53;5.03;;;20.00;96.10;;;;;;966974;145;27441;-77
2023/08/24 01:56:17;;;;;;;6.72;5.20;;;20.00;96.50;;;;;;966772;145;27337;-76
2023/08/24 01:58:44;;;;;;;5.12;4.72;;;20.00;96.80;;;;;;966888;145;27839;-77
2023/08/24 02:01:12;;;;;;;5.45;4.95;;;20.00;97.10;;;;;;944209;149;27337;-77
2023/08/24 02:03:38;;;;;;;5.00;4.60;;;20.00;97.30;;;;;;966541;145;27345;-75
2023/08/24 02:06:04;;;;;;;5.87;4.65;;;20.00;97.50;;;;;;966867;145;27438;-76
2023/08/24 02:08:30;;;;;;;5.83;5.25;;;20.00;97.60;;;;;;967092;145;27354;-77
2023/08/24 02:10:57;;;;;;;5.92;5.30;;;20.00;97.90;;;;;;967391;145;27322;-77
2023/08/24 02:13:23;;;;;;;5.65;5.05;;;20.00;98.10;;;;;;943336;149;27340;-75
2023/08/24 02:15:50;;;;;;;5.45;4.95;;;20.00;98.30;;;;;;970014;145;27381;-76
2023/08/24 02:18:16;;;;;;;4.80;4.40;;;20.00;98.40;;;;;;969947;145;27369;-76
2023/08/24 02:20:43;;;;;;;4.53;4.12;;;20.00;98.40;;;;;;970407;145;26583;-76
2023/08/24 02:23:10;;;;;;;4.58;4.28;;;20.00;98.80;;;;;;970874;145;27742;-73
2023/08/24 02:25:36;;;;;;;3.83;3.52;;;20.00;98.60;;;;;;971017;145;27258;-75
2023/08/24 02:28:03;;;;;;;5.00;3.75;;;20.00;98.60;;;;;;969023;145;27330;-75
2023/08/24 02:30:29;;;;;;;3.90;3.50;;;20.00;98.60;;;;;;970166;145;29343;-72
2023/08/24 02:32:56;;;;;;;4.03;3.72;;;20.00;98.60;;;;;;969729;145;27617;-72
2023/08/24 02:35:23;;;;;;;4.33;3.50;;;20.00;98.70;;;;;;970353;145;27334;-73
2023/08/24 02:37:49;;;;;;;5.47;3.60;;;20.00;98.60;;;;;;970126;145;27310;-75
2023/08/24 02:40:16;;;;;;;3.85;3.55;;;20.00;98.70;;;;;;970985;145;27429;-72
2023/08/24 02:42:42;;;;;;;3.58;3.37;;;19.90;98.80;;;;;;970293;145;27246;-73
2023/08/24 02:45:09;;;;;;;4.67;3.95;;;19.90;99.00;;;;;;970765;145;27279;-72
2023/08/24 02:47:36;;;;;;;3.90;3.60;;;19.90;99.10;;;;;;970677;145;27317;-75
2023/08/24 02:50:02;;;;;;;5.03;4.20;;;19.90;99.30;;;;;;970202;145;27442;-72
2023/08/24 02:52:29;;;;;;;3.87;3.47;;;19.90;99.60;;;;;;971144;145;27371;-72
2023/08/24 02:54:55;;;;;;;5.50;4.05;;;19.90;99.70;;;;;;971039;145;27324;-73
2023/08/24 02:57:22;;;;;;;4.17;3.70;;;19.90;99.80;;;;;;971250;145;27311;-74
2023/08/24 02:59:48;;;;;;;3.62;3.37;;;19.90;99.90;;;;;;971190;145;27352;-73
2023/08/24 03:02:15;;;;;;;4.33;4.00;;;19.90;99.90;;;;;;969531;145;27349;-72
2023/08/24 03:04:42;;;;;;;4.15;3.85;;;19.90;99.90;;;;;;970531;145;27293;-73
2023/08/24 03:07:10;;;;;;;4.50;4.15;;;19.90;99.90;;;;;;970213;145;27339;-73
2023/08/24 03:09:35;;;;;;;4.50;4.10;;;19.90;99.90;;;;;;970165;145;27372;-74
2023/08/24 03:12:01;;;;;;;4.35;4.05;;;20.00;99.90;;;;;;969839;145;28167;-73
2023/08/24 03:14:28;;;;;;;4.42;4.03;;;20.00;99.90;;;;;;970160;145;27337;-73
2023/08/24 03:16:55;;;;;;;5.70;3.98;;;20.00;99.90;;;;;;970516;145;27349;-72
2023/08/24 03:19:21;;;;;;;3.98;3.67;;;20.10;99.90;;;;;;970531;145;27359;-73
2023/08/24 03:21:48;;;;;;;3.75;3.50;;;20.10;99.90;;;;;;970151;145;27393;-76
2023/08/24 03:24:15;;;;;;;4.33;3.55;;;20.10;99.90;;;;;;969993;145;27337;-73
2023/08/24 03:26:41;;;;;;;4.03;3.72;;;20.20;99.90;;;;;;970803;145;27330;-72
2023/08/24 03:29:07;;;;;;;6.12;3.95;;;20.20;99.90;;;;;;970510;145;27430;-75
2023/08/24 03:31:34;;;;;;;4.15;3.85;;;20.20;99.90;;;;;;970341;145;27310;-76
2023/08/24 03:34:01;;;;;;;3.77;3.25;;;20.30;99.90;;;;;;970622;145;27267;-74
2023/08/24 03:36:28;;;;;;;3.90;3.60;;;20.30;99.90;;;;;;969801;145;27353;-77
2023/08/24 03:38:54;;;;;;;5.47;4.25;;;20.30;99.90;;;;;;969973;145;27317;-77
2023/08/24 03:41:20;;;;;;;4.30;4.00;;;20.30;99.90;;;;;;969832;145;27305;-77
2023/08/24 03:43:47;;;;;;;4.35;3.98;;;20.30;99.90;;;;;;969874;145;27427;-74
2023/08/24 03:46:14;;;;;;;4.05;3.50;;;20.30;99.90;;;;;;970272;145;27341;-77
2023/08/24 03:48:40;;;;;;;4.35;3.95;;;20.30;99.90;;;;;;969753;145;27310;-77
2023/08/24 03:51:07;;;;;;;5.15;3.98;;;20.30;99.90;;;;;;970084;145;27370;-77
2023/08/24 03:53:33;;;;;;;17.45;5.20;;;20.30;99.90;;;;;;969885;145;27761;-77
2023/08/24 03:56:00;;;;;;;3.92;3.62;;;20.30;99.90;;;;;;971258;145;27434;-75
2023/08/24 03:58:27;;;;;;;3.50;3.20;;;20.30;99.90;;;;;;970516;145;27462;-77
2023/08/24 04:00:54;;;;;;;5.20;4.17;;;20.30;99.90;;;;;;969491;145;27339;-77
2023/08/24 04:03:20;;;;;;;4.75;4.25;;;20.30;99.90;;;;;;968970;145;27332;-76
2023/08/24 04:05:46;;;;;;;4.95;4.50;;;20.20;99.90;;;;;;970756;145;27407;-76
2023/08/24 04:08:13;;;;;;;4.87;4.50;;;20.20;99.90;;;;;;970048;145;27373;-77
2023/08/24 04:10:40;;;;;;;4.87;4.47;;;20.20;99.90;;;;;;969692;145;28141;-77
2023/08/24 04:13:06;;;;;;;4.75;4.30;;;20.20;99.90;;;;;;970734;145;27316;-76
2023/08/24 04:15:33;;;;;;;4.58;4.17;;;20.10;99.90;;;;;;968102;145;27314;-76
2023/08/24 04:17:59;;;;;;;5.05;4.55;;;20.20;99.90;;;;;;950411;146;27403;-75
2023/08/24 04:20:26;;;;;;;4.97;4.67;;;20.10;99.90;;;;;;950247;146;27350;-76
2023/08/24 04:22:52;;;;;;;7.87;4.83;;;20.10;99.90;;;;;;949908;146;27444;-75
2023/08/24 04:25:19;;;;;;;6.17;5.40;;;20.10;99.90;;;;;;949512;148;27331;-76
2023/08/24 04:27:46;;;;;;;10.90;7.47;;;20.20;99.90;;;;;;950200;146;27349;-75
2023/08/24 04:30:13;;;;;;;9.10;6.70;;;20.10;99.90;;;;;;949946;146;27362;-76
2023/08/24 04:32:39;;;;;;;7.00;5.92;;;20.10;99.90;;;;;;948441;146;27415;-75
2023/08/24 04:35:05;;;;;;;6.97;5.55;;;20.20;99.90;;;;;;949459;146;27388;-76
2023/08/24 04:37:32;;;;;;;6.40;5.78;;;20.20;99.90;;;;;;950116;146;27326;-75
2023/08/24 04:39:59;;;;;;;7.22;6.20;;;20.20;99.90;;;;;;949387;146;27343;-77
2023/08/24 04:42:25;;;;;;;7.37;5.15;;;20.20;99.90;;;;;;950553;146;27415;-75
2023/08/24 04:44:52;;;;;;;5.65;5.03;;;20.20;99.90;;;;;;949449;146;27260;-74
2023/08/24 04:47:19;;;;;;;4.78;4.35;;;20.30;99.90;;;;;;949814;146;27307;-75
2023/08/24 04:49:45;;;;;;;6.58;4.33;;;20.30;99.90;;;;;;950055;146;27322;-75
2023/08/24 04:52:12;;;;;;;4.45;4.05;;;20.30;99.90;;;;;;950096;146;27425;-74
2023/08/24 04:54:38;;;;;;;3.83;3.42;;;20.30;99.90;;;;;;949870;146;27315;-74
2023/08/24 04:57:05;;;;;;;4.80;3.33;;;20.30;99.90;;;;;;950008;146;27314;-75
2023/08/24 04:59:31;;;;;;;4.35;3.62;;;20.40;99.90;;;;;;949878;146;27332;-75
2023/08/24 05:01:58;;;;;;;3.85;3.50;;;20.40;99.90;;;;;;950239;146;27325;-74
2023/08/24 05:04:25;;;;;;;4.35;3.98;;;20.50;99.90;;;;;;948507;146;27331;-74
2023/08/24 05:06:51;;;;;;;4.67;3.72;;;20.50;99.90;;;;;;949866;146;27382;-74
2023/08/24 05:09:18;;;;;;;3.75;3.45;;;20.60;99.90;;;;;;949226;146;27373;-74
2023/08/24 05:11:44;;;;;;;4.05;3.75;;;20.60;99.90;;;;;;949542;146;27412;-75
2023/08/24 05:14:13;;;;;;;3.42;3.02;;;20.70;99.90;;;;;;949479;146;27434;-74
2023/08/24 05:16:37;;;;;;;3.67;3.27;;;20.70;99.90;;;;;;956234;145;27422;-74
2023/08/24 05:19:04;;;;;;;3.47;3.17;;;20.80;99.90;;;;;;969714;145;27381;-74
2023/08/24 05:21:31;;;;;;;3.52;3.33;;;20.80;99.90;;;;;;969756;145;27398;-74
2023/08/24 05:23:57;;;;;;;3.90;3.60;;;20.90;99.90;;;;;;970219;145;27473;-74
2023/08/24 05:26:24;;;;;;;3.98;3.55;;;21.00;99.90;;;;;;970442;145;27337;-74
2023/08/24 05:28:50;;;;;;;5.05;3.17;;;21.10;99.90;;;;;;970265;145;28547;-74
2023/08/24 05:31:17;;;;;;;3.55;3.25;;;21.10;99.90;;;;;;970613;145;27302;-74
2023/08/24 05:33:44;;;;;;;3.60;3.30;;;21.20;99.90;;;;;;969813;145;27333;-75
2023/08/24 05:36:10;;;;;;;4.83;3.17;;;21.30;99.90;;;;;;969981;145;27373;-74
2023/08/24 05:38:37;;;;;;;3.42;3.12;;;21.40;99.90;;;;;;970421;145;27454;-74
2023/08/24 05:41:03;;;;;;;3.50;3.22;;;21.50;99.80;;;;;;969930;145;27411;-74
2023/08/24 05:43:30;;;;;;;3.45;3.15;;;21.50;99.40;;;;;;970277;145;27300;-75
2023/08/24 05:45:57;;;;;;;3.70;3.22;;;21.60;98.80;;;;;;970452;145;27333;-75
2023/08/24 05:48:23;;;;;;;4.70;3.33;;;21.70;98.30;;;;;;969663;145;27333;-74
2023/08/24 05:50:52;;;;;;;3.33;2.92;;;21.70;97.90;;;;;;969893;145;27259;-74
2023/08/24 05:53:16;;;;;;;3.35;2.77;;;21.70;97.70;;;;;;969471;145;27314;-72
2023/08/24 05:55:43;;;;;;;4.12;3.05;;;21.80;97.40;;;;;;970696;145;27306;-74
2023/08/24 05:58:10;;;;;;;3.65;2.90;;;21.80;97.30;;;;;;970216;145;27701;-73
2023/08/24 06:00:36;;;;;;;2.98;2.62;;;21.80;97.30;;;;;;969644;145;29364;-73
2023/08/24 06:03:03;;;;;;;3.50;3.00;;;21.80;97.20;;;;;;969866;145;27546;-72
2023/08/24 06:05:29;;;;;;;3.58;2.90;;;21.90;97.40;;;;;;969955;145;27306;-73
2023/08/24 06:07:56;;;;;;;3.80;2.87;;;22.00;97.40;;;;;;969872;145;27415;-72
2023/08/24 06:10:22;;;;;;;2.67;2.47;;;22.00;97.20;;;;;;969715;145;27768;-72
2023/08/24 06:12:49;;;;;;;3.05;2.60;;;22.10;96.90;;;;;;969282;145;27286;-73
2023/08/24 06:15:16;;;;;;;2.67;2.55;;;22.20;96.60;;;;;;970432;145;27315;-73
2023/08/24 06:17:42;;;;;;;2.90;2.65;;;22.30;96.60;;;;;;961391;145;27375;-74
2023/08/24 06:20:12;;;;;;;3.35;2.55;;;22.40;96.00;;;;;;949788;146;27350;-72
2023/08/24 06:22:38;;;;;;;2.72;2.52;;;22.50;95.70;;;;;;948985;148;27279;-74
2023/08/24 06:25:05;;;;;;;3.02;2.55;;;22.60;95.50;;;;;;932527;149;27339;-73
2023/08/24 06:27:31;;;;;;;2.90;2.62;;;22.70;95.20;;;;;;950329;146;27416;-75
2023/08/24 06:29:58;;;;;;;4.03;2.40;;;22.80;95.90;;;;;;949627;146;27719;-74
2023/08/24 06:32:25;;;;;;;3.75;2.37;;;23.00;96.00;;;;;;948462;146;27425;-73
2023/08/24 06:34:51;;;;;;;2.55;2.35;;;23.20;96.20;;;;;;949184;146;27397;-73
2023/08/24 06:37:18;;;;;;;3.85;2.50;;;23.50;95.90;;;;;;947896;146;28195;-74
2023/08/24 06:39:44;;;;;;;6.60;2.33;;;23.80;95.00;;;;;;949881;146;27436;-75
2023/08/24 06:42:11;;;;;;;2.85;2.10;;;24.10;94.30;;;;;;949934;146;27351;-72
2023/08/24 06:44:38;;;;;;;3.83;2.30;;;24.30;92.50;;;;;;949420;146;27322;-73
2023/08/24 06:47:04;;;;;;;2.33;2.12;;;24.60;91.20;;;;;;948489;146;27431;-73
2023/08/24 06:49:31;;;;;;;3.25;2.25;;;24.70;90.20;;;;;;949593;146;27312;-75
2023/08/24 06:51:57;;;;;;;3.87;2.55;;;24.90;88.10;;;;;;949282;146;27335;-74
2023/08/24 06:54:24;;;;;;;4.20;2.47;;;25.00;85.90;;;;;;949549;146;27365;-73
2023/08/24 06:56:51;;;;;;;3.65;2.67;;;25.00;85.00;;;;;;949532;146;27359;-74
2023/08/24 06:59:17;;;;;;;3.95;2.50;;;25.00;83.90;;;;;;949330;146;27318;-75
2023/08/24 07:01:44;;;;;;;2.65;2.40;;;25.00;83.20;;;;;;950778;146;27359;-76
2023/08/24 07:04:10;;;;;;;3.35;2.70;;;25.00;81.70;;;;;;952057;146;27327;-76
2023/08/24 07:06:37;;;;;;;4.83;2.40;;;24.90;80.70;;;;;;949725;146;27257;-75
2023/08/24 07:09:06;;;;;;;3.98;2.25;;;24.80;79.90;;;;;;949936;146;27339;-75
2023/08/24 07:11:30;;;;;;;3.85;2.87;;;24.70;80.50;;;;;;949638;146;27323;-76
2023/08/24 07:13:57;;;;;;;4.30;2.40;;;24.50;80.70;;;;;;949236;146;27354;-75
2023/08/24 07:16:23;;;;;;;4.08;2.40;;;24.30;81.20;;;;;;948877;146;27418;-76
2023/08/24 07:18:50;;;;;;;2.77;1.98;;;24.20;81.50;;;;;;949378;146;27335;-76
2023/08/24 07:21:17;;;;;;;4.58;1.95;;;24.10;82.30;;;;;;950322;146;27296;-76
2023/08/24 07:23:43;;;;;;;2.77;2.47;;;24.00;83.70;;;;;;949665;146;27499;-75
2023/08/24 07:26:10;;;;;;;2.20;2.05;;;23.90;85.30;;;;;;948667;146;27513;-75
2023/08/24 07:28:36;;;;;;;2.17;1.98;;;23.90;86.00;;;;;;949602;146;27399;-75
2023/08/24 07:31:10;;;;;;;3.72;2.62;;;23.90;85.30;;;;;;948902;146;27380;-75
2023/08/24 07:33:35;;;;;;;2.50;2.30;;;24.00;85.70;;;;;;949193;148;27874;-75
2023/08/24 07:36:04;;;;;;;2.83;2.00;;;24.00;85.30;;;;;;950010;146;27745;-75
2023/08/24 07:38:29;;;;;;;2.60;2.37;;;23.90;86.20;;;;;;949460;146;27412;-75
2023/08/24 07:40:55;;;;;;;2.58;2.37;;;23.90;86.70;;;;;;949885;146;27273;-75
2023/08/24 07:43:22;;;;;;;5.28;2.00;;;23.90;88.80;;;;;;950068;146;27727;-75
2023/08/24 07:45:48;;;;;;;2.30;2.20;;;23.90;89.90;;;;;;949921;146;27427;-75
2023/08/24 07:48:15;;;;;;;3.60;2.30;;;24.00;89.80;;;;;;949702;146;27346;-75
2023/08/24 07:50:42;;;;;;;5.55;2.42;;;24.00;90.30;;;;;;949462;146;27244;-75
2023/08/24 07:53:08;;;;;;;2.67;2.37;;;24.10;90.40;;;;;;950074;146;27377;-75
2023/08/24 07:55:35;;;;;;;2.42;2.22;;;24.20;90.70;;;;;;949780;146;27428;-75
2023/08/24 07:58:02;;;;;;;2.33;2.10;;;24.30;90.50;;;;;;949509;146;27326;-75
2023/08/24 08:00:28;;;;;;;4.05;2.77;;;24.50;90.40;;;;;;949317;146;27269;-75
2023/08/24 08:02:54;;;;;;;2.35;2.10;;;24.60;90.10;;;;;;949802;146;27312;-75
2023/08/24 08:05:22;;;;;;;3.35;2.60;;;24.70;90.00;;;;;;949810;146;27324;-75
2023/08/24 08:07:48;;;;;;;3.27;1.98;;;24.90;89.40;;;;;;949770;146;27342;-75
2023/08/24 08:10:17;;;;;;;4.67;2.70;;;24.90;88.60;;;;;;949800;146;27401;-75
2023/08/24 08:12:41;;;;;;;3.17;2.30;;;25.00;88.50;;;;;;950443;146;27335;-71
2023/08/24 08:15:07;;;;;;;2.37;2.20;;;25.10;86.80;;;;;;950570;146;27407;-74
2023/08/24 08:17:34;;;;;;;2.98;2.67;;;25.20;86.40;;;;;;948592;146;27340;-72
2023/08/24 08:20:02;;;;;;;2.72;2.52;;;25.30;85.90;;;;;;950970;145;28505;-71
2023/08/24 08:22:27;;;;;;;3.02;2.27;;;25.40;85.40;;;;;;949531;146;27471;-72
2023/08/24 08:24:55;;;;;;;2.33;2.10;;;25.50;84.60;;;;;;949627;146;27328;-72
2023/08/24 08:27:21;;;;;;;6.45;2.62;;;25.60;85.00;;;;;;949655;146;27701;-76
2023/08/24 08:29:47;;;;;;;2.52;2.33;;;25.80;84.60;;;;;;947500;146;27362;-71
2023/08/24 08:42:20;;;;;;;2.20;2.10;;;26.80;83.00;;;;;;949325;146;27668;-73
2023/08/24 08:44:47;;;;;;;2.40;2.20;;;27.10;81.60;;;;;;949488;146;27316;-71
2023/08/24 08:47:14;;;;;;;2.17;1.98;;;27.30;78.90;;;;;;949766;146;27762;-73
2023/08/24 08:49:40;;;;;;;3.47;2.17;;;27.50;77.50;;;;;;950278;146;27416;-75
2023/08/24 08:52:07;;;;;;;2.10;1.90;;;27.60;76.60;;;;;;949892;146;27503;-72
2023/08/24 08:54:33;;;;;;;2.67;2.08;;;27.70;75.90;;;;;;949514;146;27327;-72
2023/08/24 08:57:00;;;;;;;1.95;1.80;;;27.90;75.30;;;;;;950653;146;27322;-72
2023/08/24 08:59:29;;;;;;;1.95;1.85;;;28.00;75.10;;;;;;949331;146;27432;-75
2023/08/24 09:01:53;;;;;;;3.17;2.10;;;28.20;74.60;;;;;;949216;146;27335;-71
2023/08/24 09:04:20;;;;;;;2.08;1.65;;;28.30;73.70;;;;;;949047;146;27294;-72
2023/08/24 09:06:46;;;;;;;2.10;2.00;;;28.50;73.50;;;;;;950191;146;27314;-71
2023/08/24 09:09:13;;;;;;;2.58;1.45;;;28.90;75.60;;;;;;949600;146;27399;-73
2023/08/24 09:11:42;;;;;;;3.00;1.77;;;29.50;77.90;;;;;;950286;146;27417;-71
2023/08/24 09:14:06;;;;;;;1.77;1.60;;;30.40;79.50;;;;;;949265;146;27269;-71
2023/08/24 09:16:33;;;;;;;2.75;1.60;;;31.20;78.20;;;;;;950285;146;26215;-72
2023/08/24 09:18:59;;;;;;;1.87;1.77;;;32.10;73.60;;;;;;949794;146;26364;-72
2023/08/24 09:21:26;;;;;;;2.77;1.65;;;32.70;70.30;;;;;;954039;145;27370;-74
2023/08/24 09:23:52;;;;;;;1.67;1.57;;;33.40;67.00;;;;;;969816;145;28296;-75
2023/08/24 09:26:31;;;;;;;1.67;1.57;;;34.00;65.60;;;;;;970417;145;26308;-75
2023/08/24 09:28:58;;;;;;;6.30;1.87;;;34.50;65.10;;;;;;970044;145;26327;-74
2023/08/24 09:31:24;;;;;;;1.72;1.62;;;35.10;63.70;;;;;;970301;145;26230;-74
2023/08/24 09:33:51;;;;;;;1.92;1.82;;;35.70;61.50;;;;;;967848;145;26262;-74
2023/08/24 09:36:17;;;;;;;2.27;1.80;;;36.00;59.50;;;;;;968364;145;27336;-74
2023/08/24 09:38:50;;;;;;;2.27;2.00;;;36.30;58.00;;;;;;969691;145;26336;-74
2023/08/24 09:41:13;;;;;;;1.70;1.60;;;36.50;57.00;;;;;;969685;145;26292;-74
2023/08/24 09:43:40;;;;;;;3.72;1.90;;;36.60;56.60;;;;;;969828;145;26242;-74
2023/08/24 09:46:07;;;;;;;3.45;1.70;;;36.70;56.20;;;;;;970167;145;26206;-74
2023/08/24 09:48:33;;;;;;;1.77;1.67;;;36.90;56.00;;;;;;969363;145;26374;-74
2023/08/24 09:51:00;;;;;;;3.80;1.80;;;37.10;55.60;;;;;;970725;145;26235;-74
2023/08/24 09:53:26;;;;;;;2.00;1.67;;;37.30;55.00;;;;;;970110;145;26727;-74
2023/08/24 09:55:56;;;;;;;2.60;1.82;;;37.50;54.50;;;;;;970082;145;27008;-75
2023/08/24 09:58:22;;;;;;;1.65;1.55;;;37.70;54.20;;;;;;970184;145;26234;-74
2023/08/24 10:00:49;;;;;;;2.67;1.50;;;37.70;53.60;;;;;;970697;145;27370;-74
2023/08/24 10:03:16;;;;;;;2.10;1.55;;;37.80;53.00;;;;;;970297;145;26362;-74
2023/08/24 10:05:43;;;;;;;1.70;1.60;;;37.90;52.80;;;;;;970310;145;26849;-74
2023/08/24 10:08:08;;;;;;;2.08;1.85;;;37.90;52.40;;;;;;969154;145;26254;-75
2023/08/24 10:10:35;;;;;;;2.67;1.95;;;37.80;51.70;;;;;;947756;148;26236;-74
2023/08/24 10:13:02;;;;;;;2.33;1.65;;;37.90;51.60;;;;;;934564;151;26276;-75
2023/08/24 10:15:28;;;;;;;1.80;1.70;;;37.80;51.10;;;;;;930757;151;26378;-75
2023/08/24 10:17:55;;;;;;;3.42;1.72;;;37.70;50.70;;;;;;930725;151;26399;-74
2023/08/24 10:20:21;;;;;;;2.00;1.80;;;37.60;50.60;;;;;;948337;148;26216;-75
2023/08/24 10:22:48;;;;;;;3.02;2.05;;;37.50;50.10;;;;;;944363;149;26302;-74
2023/08/24 10:25:15;;;;;;;2.90;1.55;;;37.40;49.80;;;;;;942412;149;26357;-75
2023/08/24 10:27:45;;;;;;;2.60;2.00;;;37.20;49.80;;;;;;925295;152;26281;-74
2023/08/24 10:30:10;;;;;;;3.15;1.90;;;37.10;49.50;;;;;;966176;145;27343;-74
2023/08/24 10:32:37;;;;;;;2.05;1.80;;;36.90;49.40;;;;;;965265;145;27437;-75
2023/08/24 10:35:03;;;;;;;5.67;2.10;;;36.70;49.10;;;;;;966276;145;28072;-75
2023/08/24 10:37:31;;;;;;;2.90;2.00;;;36.50;49.20;;;;;;965436;145;26363;-75
2023/08/24 10:39:57;;;;;;;2.30;2.10;;;36.30;49.10;;;;;;965592;145;27355;-75
2023/08/24 10:42:25;;;;;;;4.72;2.52;;;36.20;49.00;;;;;;966002;145;26292;-75
2023/08/24 10:44:50;;;;;;;4.53;2.08;;;36.00;48.80;;;;;;965987;145;27335;-75
2023/08/24 10:47:19;;;;;;;2.30;2.10;;;35.80;48.90;;;;;;966164;145;27433;-75
2023/08/24 10:49:46;;;;;;;2.20;2.00;;;35.70;48.90;;;;;;966755;145;26211;-75
2023/08/24 10:52:21;;;;;;;4.60;2.37;;;35.50;49.30;;;;;;963058;145;27420;-75
2023/08/24 10:54:48;;;;;;;1.90;1.80;;;35.40;49.30;;;;;;927309;152;26319;-75
2023/08/24 10:57:23;;;;;;;2.37;1.98;;;35.40;49.60;;;;;;966761;145;27735;-75
2023/08/24 11:00:10;;;;;;;2.42;2.05;;;35.30;49.80;;;;;;966784;145;27752;-75
2023/08/24 11:02:46;;;;;;;2.80;2.20;;;35.30;50.00;;;;;;965983;145;27356;-75
2023/08/24 11:05:21;;;;;;;2.27;2.08;;;35.30;49.80;;;;;;967210;145;27441;-75
2023/08/24 11:07:51;;;;;;;2.75;2.20;;;35.30;49.80;;;;;;946462;148;27338;-75
2023/08/24 11:10:17;;;;;;;2.47;2.27;;;35.40;49.60;;;;;;942694;151;27284;-75
2023/08/24 11:13:09;;;;;;;3.85;2.17;;;35.40;49.60;;;;;;926582;152;26293;-75
2023/08/24 11:15:39;;;;;;;3.27;2.17;;;35.50;49.10;;;;;;966330;145;27907;-75
2023/08/24 11:18:14;;;;;;;2.90;2.15;;;35.50;48.90;;;;;;965974;145;27371;-75
2023/08/24 11:20:40;;;;;;;1.65;1.55;;;35.50;48.40;;;;;;966145;145;26332;-75
2023/08/24 11:23:07;;;;;;;2.55;1.70;;;35.50;48.10;;;;;;958609;145;27363;-75
2023/08/24 11:25:33;;;;;;;1.98;1.77;;;35.50;48.00;;;;;;949295;146;26329;-75
2023/08/24 11:28:00;;;;;;;1.80;1.70;;;35.50;47.80;;;;;;948631;146;26320;-75
2023/08/24 11:30:27;;;;;;;2.15;1.40;;;35.50;47.70;;;;;;949361;146;26364;-75
2023/08/24 11:32:53;;;;;;;3.58;1.87;;;35.50;47.70;;;;;;949631;146;26189;-75
2023/08/24 11:35:21;;;;;;;3.10;1.67;;;35.40;47.60;;;;;;949547;146;27360;-75
2023/08/24 11:37:46;;;;;;;4.42;1.87;;;35.40;47.80;;;;;;949360;146;26255;-75
2023/08/24 11:40:26;;;;;;;2.33;1.70;;;35.40;47.80;;;;;;948676;146;27440;-75
2023/08/24 11:42:50;;;;;;;2.20;1.72;;;35.40;47.90;;;;;;948554;146;27261;-72
2023/08/24 11:45:15;;;;;;;3.95;1.90;;;35.40;47.50;;;;;;948858;146;27421;-73
2023/08/24 11:47:41;;;;;;;1.92;1.82;;;35.40;47.40;;;;;;950201;146;26259;-74
2023/08/24 11:50:08;;;;;;;1.90;1.80;;;35.40;47.30;;;;;;949219;146;27861;-71
2023/08/24 11:52:35;;;;;;;2.25;1.90;;;35.40;46.80;;;;;;949408;146;26216;-73
2023/08/24 11:55:01;;;;;;;1.98;1.80;;;35.40;46.90;;;;;;947816;146;27369;-73
2023/08/24 11:57:28;;;;;;;3.00;2.00;;;35.30;46.70;;;;;;950081;146;26252;-75
2023/08/24 11:59:54;;;;;;;2.75;1.72;;;35.30;46.70;;;;;;949499;146;27464;-72
2023/08/24 12:02:21;;;;;;;2.30;1.90;;;35.20;46.60;;;;;;949098;146;27319;-72
2023/08/24 12:04:47;;;;;;;2.08;1.65;;;35.20;46.30;;;;;;948587;146;27325;-72
2023/08/24 12:07:14;;;;;;;2.08;1.72;;;35.00;46.30;;;;;;948342;146;27388;-74
2023/08/24 12:09:43;;;;;;;2.27;1.95;;;34.90;46.30;;;;;;949072;146;26318;-73
2023/08/24 12:12:13;;;;;;;2.10;1.90;;;34.80;46.50;;;;;;948987;146;27324;-72
2023/08/24 12:14:42;;;;;;;2.35;1.80;;;34.60;46.80;;;;;;948334;146;27393;-72
2023/08/24 12:17:08;;;;;;;2.22;2.12;;;34.50;47.10;;;;;;948366;146;27439;-72
2023/08/24 12:19:35;;;;;;;2.30;1.92;;;34.50;47.00;;;;;;950785;146;28328;-74
2023/08/24 12:22:02;;;;;;;2.20;1.70;;;34.50;47.30;;;;;;949563;146;27292;-72
2023/08/24 12:24:28;;;;;;;3.12;1.87;;;34.40;47.20;;;;;;948937;146;27363;-73
2023/08/24 12:27:02;;;;;;;4.25;1.85;;;34.40;47.30;;;;;;949145;146;27337;-76
2023/08/24 12:29:24;;;;;;;4.60;2.20;;;34.40;47.30;;;;;;948556;146;27352;-72
2023/08/24 12:31:51;;;;;;;2.02;1.92;;;34.30;47.30;;;;;;948588;146;27354;-72
2023/08/24 12:34:17;;;;;;;2.67;2.00;;;34.30;47.60;;;;;;949758;146;27316;-75
2023/08/24 12:36:45;;;;;;;2.27;1.95;;;34.30;47.70;;;;;;949834;146;28444;-75
2023/08/24 12:39:15;;;;;;;2.90;1.90;;;34.30;47.90;;;;;;950155;146;27425;-72
2023/08/24 12:41:40;;;;;;;3.27;1.98;;;34.30;47.80;;;;;;948356;146;27464;-72
2023/08/24 12:44:07;;;;;;;5.17;1.95;;;34.40;48.10;;;;;;949518;146;27291;-72
2023/08/24 12:46:33;;;;;;;1.98;1.85;;;34.50;48.10;;;;;;949418;146;27301;-73
2023/08/24 12:49:00;;;;;;;3.65;1.77;;;34.50;47.60;;;;;;948327;146;27411;-75
2023/08/24 12:51:26;;;;;;;2.10;1.90;;;34.50;47.30;;;;;;948831;146;26348;-72
2023/08/24 12:53:53;;;;;;;2.62;1.90;;;34.60;47.40;;;;;;948382;146;27339;-73
2023/08/24 12:56:20;;;;;;;2.12;1.92;;;34.60;47.40;;;;;;948431;146;26231;-72